createdAt,value
2023-01-03T00:02:14.819Z,4.07
2023-01-03T00:04:49.669Z,1.47
2023-01-03T00:07:34.370Z,2.57
2023-01-03T00:10:05.330Z,1.17
2023-01-03T00:12:34.709Z,2.10
2023-01-03T00:15:06.004Z,1.10
2023-01-03T00:17:37.368Z,2.57
2023-01-03T00:20:09.033Z,1.97
2023-01-03T00:22:37.882Z,1.40
2023-01-03T00:25:07.600Z,3.13
2023-01-03T00:27:36.376Z,1.97
2023-01-03T00:30:18.178Z,3.13
2023-01-03T00:32:47.003Z,3.63
2023-01-03T00:35:16.142Z,1.50
2023-01-03T00:37:44.779Z,2.83
2023-01-03T00:40:14.055Z,1.87
2023-01-03T00:43:00.124Z,2.60
2023-01-03T00:45:35.086Z,1.70
2023-01-03T00:48:04.147Z,2.73
2023-01-03T00:50:35.493Z,2.10
2023-01-03T00:53:06.106Z,1.20
2023-01-03T00:55:37.178Z,2.33
2023-01-03T00:58:05.933Z,1.83
2023-01-03T01:00:35.952Z,2.37
2023-01-03T01:03:04.835Z,2.00
2023-01-03T01:05:35.953Z,1.87
2023-01-03T01:08:04.668Z,1.97
2023-01-03T01:10:32.804Z,2.73
2023-01-03T01:13:04.291Z,1.23
2023-01-03T01:15:32.753Z,2.23
2023-01-03T01:18:02.834Z,1.97
2023-01-03T01:20:32.581Z,1.70
2023-01-03T01:23:05.991Z,2.13
2023-01-03T01:25:36.026Z,1.93
2023-01-03T01:28:04.791Z,3.60
2023-01-03T01:30:35.096Z,1.53
2023-01-03T01:33:06.209Z,2.63
2023-01-03T01:35:38.345Z,3.47
2023-01-03T01:38:07.787Z,2.53
2023-01-03T01:40:36.452Z,1.60
2023-01-03T01:43:34.859Z,2.33
2023-01-03T01:46:12.217Z,2.87
2023-01-03T01:48:42.566Z,2.00
2023-01-03T01:51:13.040Z,2.33
2023-01-03T01:53:46.936Z,1.70
2023-01-03T01:56:20.913Z,2.00
2023-01-03T01:58:54.144Z,3.97
2023-01-03T02:01:25.026Z,3.10
2023-01-03T02:04:02.092Z,3.73
2023-01-03T02:06:33.547Z,1.53
2023-01-03T02:09:03.606Z,3.47
2023-01-03T02:11:43.963Z,2.40
2023-01-03T02:14:28.784Z,4.13
2023-01-03T02:17:07.792Z,2.60
2023-01-03T02:19:59.810Z,2.07
2023-01-03T02:22:55.925Z,1.77
2023-01-03T02:26:08.443Z,2.40
2023-01-03T02:29:09.721Z,2.70
2023-01-03T02:31:48.493Z,3.37
2023-01-03T02:34:25.283Z,1.10
2023-01-03T02:37:05.285Z,1.77
2023-01-03T02:39:41.209Z,1.47
2023-01-03T02:42:33.278Z,1.20
2023-01-03T02:45:11.164Z,2.63
2023-01-03T02:47:47.664Z,4.80
2023-01-03T02:50:18.652Z,3.60
2023-01-03T02:52:50.433Z,2.10
2023-01-03T02:55:24.345Z,1.40
2023-01-03T02:57:56.534Z,2.80
2023-01-03T03:00:29.785Z,2.10
2023-01-03T03:03:06.667Z,2.03
2023-01-03T03:05:57.410Z,2.30
2023-01-03T03:08:26.355Z,2.30
2023-01-03T03:11:13.356Z,1.43
2023-01-03T03:13:47.899Z,1.90
2023-01-03T03:16:41.965Z,2.63
2023-01-03T03:19:36.141Z,2.07
2023-01-03T03:22:26.518Z,4.80
2023-01-03T03:25:03.791Z,1.20
2023-01-03T03:27:53.577Z,2.03
2023-01-03T03:30:25.398Z,1.17
2023-01-03T03:33:00.755Z,3.20
2023-01-03T03:35:48.786Z,3.93
2023-01-03T03:38:24.714Z,1.87
2023-01-03T03:41:18.259Z,2.17
2023-01-03T03:44:13.819Z,2.37
2023-01-03T03:46:54.396Z,1.83
2023-01-03T03:49:41.899Z,1.70
2023-01-03T03:52:17.660Z,1.30
2023-01-03T03:54:50.155Z,3.30
2023-01-03T03:57:24.553Z,2.60
2023-01-03T04:00:01.888Z,3.40
2023-01-03T04:02:32.766Z,2.03
2023-01-03T04:05:08.095Z,1.70
2023-01-03T04:07:40.311Z,3.60
2023-01-03T04:10:11.398Z,2.30
2023-01-03T04:12:45.041Z,4.63
2023-01-03T04:15:15.116Z,2.93
2023-01-03T04:17:43.940Z,5.27
2023-01-03T04:20:14.083Z,4.93
2023-01-03T04:22:46.803Z,3.90
2023-01-03T04:25:15.426Z,4.70
2023-01-03T04:27:43.952Z,3.20
2023-01-03T04:30:16.279Z,5.83
2023-01-03T04:32:44.777Z,5.30
2023-01-03T04:35:13.257Z,4.07
2023-01-03T04:37:41.673Z,4.30
2023-01-03T04:40:14.699Z,4.17
2023-01-03T04:43:00.429Z,3.27
2023-01-03T04:45:28.927Z,4.27
2023-01-03T04:47:57.955Z,4.73
2023-01-03T04:50:27.651Z,4.57
2023-01-03T04:52:56.565Z,4.43
2023-01-03T04:55:29.825Z,3.83
2023-01-03T04:57:58.380Z,4.00
2023-01-03T05:00:29.319Z,4.17
2023-01-03T05:02:57.737Z,3.43
2023-01-03T05:05:26.081Z,5.23
2023-01-03T05:07:55.036Z,3.20
2023-01-03T05:10:23.501Z,3.77
2023-01-03T05:13:03.478Z,3.83
2023-01-03T05:15:33.906Z,2.50
2023-01-03T05:18:04.498Z,4.70
2023-01-03T05:20:49.879Z,3.20
2023-01-03T05:23:37.011Z,4.00
2023-01-03T05:26:09.332Z,3.70
2023-01-03T05:28:39.991Z,4.10
2023-01-03T05:31:08.936Z,4.43
2023-01-03T05:33:39.645Z,3.57
2023-01-03T05:36:09.357Z,3.73
2023-01-03T05:38:41.048Z,4.50
2023-01-03T05:41:09.457Z,3.10
2023-01-03T05:43:39.274Z,4.53
2023-01-03T05:46:08.306Z,3.90
2023-01-03T05:48:37.369Z,4.27
2023-01-03T05:51:06.173Z,3.00
2023-01-03T05:53:35.054Z,3.87
2023-01-03T05:56:06.467Z,4.00
2023-01-03T05:58:37.397Z,4.53
2023-01-03T06:01:14.949Z,3.67
2023-01-03T06:03:46.424Z,4.23
2023-01-03T06:06:17.263Z,4.53
2023-01-03T06:08:46.954Z,4.43
2023-01-03T06:11:19.816Z,3.07
2023-01-03T06:13:48.894Z,2.73
2023-01-03T06:16:37.873Z,3.33
2023-01-03T06:19:07.613Z,3.40
2023-01-03T06:21:36.696Z,4.60
2023-01-03T06:24:05.986Z,3.97
2023-01-03T06:26:36.978Z,3.63
2023-01-03T06:29:05.700Z,3.77
2023-01-03T06:31:35.972Z,3.87
2023-01-03T06:34:05.515Z,2.87
2023-01-03T06:36:34.889Z,2.77
2023-01-03T06:39:03.863Z,4.60
2023-01-03T06:41:32.374Z,5.87
2023-01-03T06:44:00.848Z,3.50
2023-01-03T06:46:49.089Z,5.93
2023-01-03T06:49:36.962Z,3.23
2023-01-03T06:52:23.337Z,2.87
2023-01-03T06:54:54.811Z,7.90
2023-01-03T06:57:25.861Z,11.43
2023-01-03T06:59:55.631Z,4.63
2023-01-03T07:02:24.489Z,4.60
2023-01-03T07:04:54.829Z,20.67
2023-01-03T07:07:23.670Z,30.10
2023-01-03T07:09:51.832Z,23.87
2023-01-03T07:12:39.040Z,6.10
2023-01-03T07:15:08.378Z,9.80
2023-01-03T07:17:39.298Z,12.47
2023-01-03T07:20:11.037Z,13.73
2023-01-03T07:22:39.663Z,8.20
2023-01-03T07:25:08.532Z,3.30
2023-01-03T07:27:37.216Z,3.60
2023-01-03T07:30:06.109Z,3.80
2023-01-03T07:32:34.699Z,3.67
2023-01-03T07:35:04.058Z,3.23
2023-01-03T07:37:34.458Z,5.90
2023-01-03T07:40:02.832Z,4.73
2023-01-03T07:42:48.659Z,4.13
2023-01-03T07:45:17.130Z,3.17
2023-01-03T07:47:47.283Z,4.40
2023-01-03T07:50:16.540Z,4.90
2023-01-03T07:52:47.120Z,4.63
2023-01-03T07:55:16.468Z,4.57
2023-01-03T07:57:45.147Z,4.67
2023-01-03T08:00:14.341Z,6.67
2023-01-03T08:02:42.893Z,7.70
2023-01-03T08:05:11.729Z,8.07
2023-01-03T08:07:40.035Z,7.07
2023-01-03T08:10:28.629Z,9.50
2023-01-03T08:13:13.938Z,7.57
2023-01-03T08:15:45.027Z,9.73
2023-01-03T08:18:15.645Z,8.83
2023-01-03T08:20:47.441Z,10.40
2023-01-03T08:23:16.696Z,8.43
2023-01-03T08:25:46.911Z,12.13
2023-01-03T08:28:16.401Z,8.43
2023-01-03T08:30:47.402Z,10.23
2023-01-03T08:33:18.912Z,9.30
2023-01-03T08:35:51.214Z,11.07
2023-01-03T08:38:24.786Z,12.57
2023-01-03T08:41:01.232Z,10.17
2023-01-03T08:43:31.347Z,11.23
2023-01-03T08:46:02.698Z,12.27
2023-01-03T08:48:33.335Z,13.47
2023-01-03T08:51:03.309Z,12.17
2023-01-03T08:53:31.677Z,14.37
2023-01-03T08:56:02.790Z,18.47
2023-01-03T08:58:32.052Z,17.83
2023-01-03T09:01:03.953Z,22.27
2023-01-03T09:03:32.504Z,30.70
2023-01-03T09:06:03.020Z,47.63
2023-01-03T09:08:33.816Z,45.43
2023-01-03T09:11:13.137Z,90.03
2023-01-03T09:13:46.526Z,76.83
2023-01-03T09:16:17.298Z,74.97
2023-01-03T09:18:45.567Z,60.40
2023-01-03T09:21:16.875Z,50.13
2023-01-03T09:23:46.962Z,61.57
2023-01-03T09:26:17.067Z,20.73
2023-01-03T09:28:45.772Z,16.17
2023-01-03T09:31:14.170Z,14.80
2023-01-03T09:33:42.467Z,16.17
2023-01-03T09:36:13.898Z,16.27
2023-01-03T09:38:42.642Z,16.63
2023-01-03T09:41:19.142Z,15.50
2023-01-03T09:43:52.939Z,12.77
2023-01-03T09:46:23.397Z,14.30
2023-01-03T09:48:55.527Z,13.37
2023-01-03T09:51:53.343Z,14.23
2023-01-03T09:54:46.282Z,13.33
2023-01-03T09:57:35.616Z,12.33
2023-01-03T10:00:31.566Z,14.37
2023-01-03T10:03:35.164Z,13.43
2023-01-03T10:06:14.497Z,13.80
2023-01-03T10:08:56.875Z,16.33
2023-01-03T10:11:37.544Z,14.67
2023-01-03T10:14:18.835Z,14.70
2023-01-03T10:16:57.539Z,14.47
2023-01-03T10:19:47.774Z,18.60
2023-01-03T10:22:20.581Z,17.57
2023-01-03T10:24:57.322Z,19.40
2023-01-03T10:27:28.913Z,18.83
2023-01-03T10:30:03.599Z,19.50
2023-01-03T10:32:52.803Z,16.53
2023-01-03T10:35:24.175Z,15.53
2023-01-03T10:37:54.148Z,17.07
2023-01-03T10:40:36.513Z,18.40
2023-01-03T10:43:17.569Z,19.47
2023-01-03T10:45:54.656Z,22.13
2023-01-03T10:48:25.614Z,21.50
2023-01-03T10:50:55.205Z,19.40
2023-01-03T10:53:26.877Z,20.13
2023-01-03T10:56:04.505Z,27.27
2023-01-03T10:58:37.465Z,19.90
2023-01-03T11:01:20.383Z,16.67
2023-01-03T11:07:02.580Z,13.80
2023-01-03T11:09:38.561Z,16.83
2023-01-03T11:12:16.757Z,15.87
2023-01-03T11:14:52.070Z,16.50
2023-01-03T11:17:24.577Z,14.57
2023-01-03T11:19:54.221Z,15.77
2023-01-03T11:22:37.660Z,14.63
2023-01-03T11:25:21.284Z,15.57
2023-01-03T11:28:33.264Z,15.40
2023-01-03T11:31:07.289Z,17.90
2023-01-03T11:33:52.141Z,16.40
2023-01-03T11:36:37.243Z,18.50
2023-01-03T11:39:26.663Z,17.13
2023-01-03T11:42:33.348Z,15.53
2023-01-03T11:45:36.435Z,17.67
2023-01-03T11:48:24.102Z,14.00
2023-01-03T11:50:56.710Z,16.30
2023-01-03T11:53:36.469Z,17.57
2023-01-03T11:56:30.620Z,19.70
2023-01-03T11:59:15.747Z,18.77
2023-01-03T12:02:05.265Z,18.60
2023-01-03T12:04:44.036Z,19.53
2023-01-03T12:10:14.765Z,20.80
2023-01-03T12:13:02.115Z,22.97
2023-01-03T12:15:41.069Z,26.93
2023-01-03T12:18:23.996Z,24.57
2023-01-03T12:21:01.447Z,28.40
2023-01-03T12:23:36.920Z,28.43
2023-01-03T12:26:09.840Z,25.87
2023-01-03T12:28:43.798Z,24.50
2023-01-03T12:31:27.915Z,27.60
2023-01-03T12:34:09.446Z,25.80
2023-01-03T12:36:44.577Z,26.57
2023-01-03T12:39:38.231Z,29.23
2023-01-03T12:42:15.745Z,26.63
2023-01-03T12:44:48.772Z,25.50
2023-01-03T12:47:29.395Z,24.67
2023-01-03T12:50:05.508Z,24.60
2023-01-03T12:52:37.517Z,26.23
2023-01-03T12:55:20.027Z,25.17
2023-01-03T12:58:01.026Z,23.73
2023-01-03T13:00:49.413Z,24.83
2023-01-03T13:03:23.200Z,21.30
2023-01-03T13:05:58.901Z,19.63
2023-01-03T13:08:40.118Z,20.87
2023-01-03T13:11:20.453Z,17.30
2023-01-03T13:13:56.017Z,18.33
2023-01-03T13:16:59.174Z,14.93
2023-01-03T13:20:00.765Z,13.57
2023-01-03T13:22:59.825Z,13.03
2023-01-03T13:25:45.688Z,12.27
2023-01-03T13:28:34.759Z,13.10
2023-01-03T13:31:45.834Z,10.27
2023-01-03T13:34:34.105Z,12.03
2023-01-03T13:37:22.663Z,9.93
2023-01-03T13:40:12.350Z,12.63
2023-01-03T13:42:41.964Z,10.17
2023-01-03T13:45:50.212Z,9.87
2023-01-03T13:48:22.989Z,10.37
2023-01-03T13:51:41.614Z,10.87
2023-01-03T13:54:36.529Z,10.23
2023-01-03T13:57:08.298Z,13.10
2023-01-03T13:59:43.344Z,10.87
2023-01-03T14:02:42.172Z,9.93
2023-01-03T14:05:56.748Z,10.80
2023-01-03T14:08:44.682Z,11.43
2023-01-03T14:11:47.001Z,11.83
2023-01-03T14:14:18.422Z,8.67
2023-01-03T14:16:53.331Z,10.20
2023-01-03T14:19:26.166Z,9.20
2023-01-03T14:22:21.003Z,8.50
2023-01-03T14:24:51.914Z,10.03
2023-01-03T14:27:25.656Z,8.27
2023-01-03T14:29:56.953Z,9.07
2023-01-03T14:32:34.136Z,8.83
2023-01-03T14:35:05.228Z,7.97
2023-01-03T14:37:35.216Z,8.47
2023-01-03T14:40:07.421Z,8.73
2023-01-03T14:42:37.371Z,9.17
2023-01-03T14:45:10.724Z,10.90
2023-01-03T14:47:42.178Z,8.03
2023-01-03T14:50:17.160Z,9.33
2023-01-03T14:52:49.810Z,12.20
2023-01-03T14:55:26.570Z,11.83
2023-01-03T14:57:58.550Z,9.50
2023-01-03T15:00:33.411Z,8.33
2023-01-03T15:03:04.256Z,7.77
2023-01-03T15:05:35.568Z,12.03
2023-01-03T15:08:22.055Z,10.27
2023-01-03T15:10:54.579Z,10.17
2023-01-03T15:13:28.488Z,10.30
2023-01-03T15:16:00.324Z,10.70
2023-01-03T15:18:33.536Z,11.03
2023-01-03T15:21:03.548Z,11.83
2023-01-03T15:23:39.231Z,9.70
2023-01-03T15:26:12.210Z,9.40
2023-01-03T15:28:52.134Z,11.30
2023-01-03T15:31:32.013Z,13.47
2023-01-03T15:34:02.302Z,10.67
2023-01-03T15:36:34.353Z,11.00
2023-01-03T15:39:02.895Z,14.60
2023-01-03T15:42:12.698Z,9.13
2023-01-03T15:44:47.362Z,10.30
2023-01-03T15:47:25.157Z,11.13
2023-01-03T15:50:00.482Z,13.40
2023-01-03T15:52:39.289Z,10.53
2023-01-03T15:55:22.899Z,9.93
2023-01-03T15:57:54.608Z,11.13
2023-01-03T16:00:28.484Z,13.50
2023-01-03T16:02:59.505Z,13.13
2023-01-03T16:05:28.007Z,11.13
2023-01-03T16:07:56.932Z,10.57
2023-01-03T16:10:25.769Z,13.63
2023-01-03T16:12:55.083Z,12.83
2023-01-03T16:15:26.529Z,11.53
2023-01-03T16:17:55.134Z,12.33
2023-01-03T16:20:23.521Z,13.00
2023-01-03T16:23:01.020Z,15.00
2023-01-03T16:25:30.851Z,13.10
2023-01-03T16:27:59.032Z,15.93
2023-01-03T16:30:29.324Z,14.53
2023-01-03T16:32:57.788Z,11.60
2023-01-03T16:38:48.579Z,14.77
2023-01-03T16:41:21.990Z,12.10
2023-01-03T16:43:53.059Z,12.27
2023-01-03T16:46:24.938Z,11.33
2023-01-03T16:48:59.229Z,13.43
2023-01-03T16:51:29.588Z,12.33
2023-01-03T16:54:00.525Z,12.30
2023-01-03T16:56:31.021Z,12.87
2023-01-03T16:59:17.269Z,10.67
2023-01-03T17:01:51.667Z,11.93
2023-01-03T17:04:23.299Z,12.27
2023-01-03T17:06:52.015Z,12.03
2023-01-03T17:09:40.527Z,11.27
2023-01-03T17:12:15.846Z,10.50
2023-01-03T17:14:44.903Z,13.90
2023-01-03T17:17:19.875Z,15.17
2023-01-03T17:20:06.045Z,11.13
2023-01-03T17:22:35.052Z,14.03
2023-01-03T17:25:03.784Z,11.00
2023-01-03T17:27:33.651Z,11.70
2023-01-03T17:30:08.664Z,14.83
2023-01-03T17:32:42.072Z,18.97
2023-01-03T17:35:13.956Z,21.87
2023-01-03T17:38:14.267Z,14.97
2023-01-03T17:40:33.992Z,11.93
2023-01-03T17:43:04.993Z,11.30
2023-01-03T17:45:50.274Z,16.83
2023-01-03T17:48:38.735Z,12.57
2023-01-03T17:51:07.342Z,14.33
2023-01-03T17:53:37.398Z,13.00
2023-01-03T17:56:09.044Z,11.60
2023-01-03T17:58:39.765Z,12.07
2023-01-03T18:01:09.726Z,13.50
2023-01-03T18:03:40.389Z,13.87
2023-01-03T18:06:13.859Z,13.90
2023-01-03T18:08:45.086Z,17.43
2023-01-03T18:11:17.955Z,15.00
2023-01-03T18:13:48.393Z,15.50
2023-01-03T18:16:19.766Z,17.03
2023-01-03T18:18:51.337Z,15.73
2023-01-03T18:21:28.197Z,16.50
2023-01-03T18:24:01.526Z,15.13
2023-01-03T18:26:34.690Z,14.33
2023-01-03T18:29:05.087Z,11.20
2023-01-03T18:31:36.167Z,14.17
2023-01-03T18:34:06.323Z,11.90
2023-01-03T18:36:43.352Z,12.63
2023-01-03T18:39:16.270Z,18.30
2023-01-03T18:41:51.380Z,13.93
2023-01-03T18:44:30.942Z,17.47
2023-01-03T18:47:04.314Z,16.77
2023-01-03T18:49:40.979Z,16.93
2023-01-03T18:52:30.986Z,14.27
2023-01-03T18:55:03.273Z,14.73
2023-01-03T18:57:34.455Z,18.10
2023-01-03T19:00:08.201Z,17.37
2023-01-03T19:02:38.252Z,14.53
2023-01-03T19:05:15.375Z,18.33
2023-01-03T19:07:47.868Z,14.33
2023-01-03T19:10:22.061Z,18.40
2023-01-03T19:12:53.819Z,38.93
2023-01-03T19:15:26.596Z,19.53
2023-01-03T19:17:54.976Z,17.63
2023-01-03T19:20:27.167Z,17.20
2023-01-03T19:22:57.029Z,16.83
2023-01-03T19:25:45.913Z,15.90
2023-01-03T19:28:22.360Z,13.77
2023-01-03T19:31:02.275Z,13.10
2023-01-03T19:33:33.097Z,13.10
2023-01-03T19:36:11.742Z,14.80
2023-01-03T19:38:45.565Z,13.50
2023-01-03T19:41:18.286Z,15.70
2023-01-03T19:43:46.572Z,18.43
2023-01-03T19:46:18.321Z,13.63
2023-01-03T19:48:50.301Z,15.00
2023-01-03T19:51:23.566Z,13.63
2023-01-03T19:53:53.757Z,13.53
2023-01-03T19:56:24.432Z,13.43
2023-01-03T19:58:55.451Z,15.70
2023-01-03T20:02:05.964Z,15.67
2023-01-03T20:04:27.403Z,17.10
2023-01-03T20:06:57.989Z,20.47
2023-01-03T20:09:28.622Z,13.10
2023-01-03T20:11:59.684Z,14.77
2023-01-03T20:14:31.522Z,19.70
2023-01-03T20:17:02.865Z,19.37
2023-01-03T20:19:32.588Z,18.87
2023-01-03T20:22:07.235Z,15.70
2023-01-03T20:24:40.435Z,19.47
2023-01-03T20:27:14.828Z,17.10
2023-01-03T20:29:45.650Z,18.07
2023-01-03T20:32:14.909Z,19.20
2023-01-03T20:34:45.086Z,14.60
2023-01-03T20:37:23.383Z,15.03
2023-01-03T20:39:59.108Z,16.70
2023-01-03T20:42:28.257Z,19.20
2023-01-03T20:44:58.663Z,14.57
2023-01-03T20:47:27.150Z,16.50
2023-01-03T20:49:58.541Z,21.57
2023-01-03T20:52:28.894Z,14.00
2023-01-03T20:54:57.255Z,19.97
2023-01-03T20:57:28.950Z,16.67
2023-01-03T20:59:59.973Z,17.30
2023-01-03T21:02:31.803Z,15.27
2023-01-03T21:05:03.704Z,14.60
2023-01-03T21:07:48.563Z,17.53
2023-01-03T21:10:41.370Z,16.80
2023-01-03T21:13:13.670Z,20.90
2023-01-03T21:15:43.993Z,18.63
2023-01-03T21:18:18.077Z,18.43
2023-01-03T21:20:49.685Z,20.47
2023-01-03T21:23:21.684Z,18.27
2023-01-03T21:25:50.798Z,20.70
2023-01-03T21:28:19.428Z,22.17
2023-01-03T21:30:49.154Z,22.33
2023-01-03T21:33:19.601Z,19.73
2023-01-03T21:35:54.608Z,19.27
2023-01-03T21:38:25.324Z,18.63
2023-01-03T21:40:56.251Z,19.00
2023-01-03T21:43:27.222Z,19.30
2023-01-03T21:46:05.366Z,19.53
2023-01-03T21:48:36.379Z,18.97
2023-01-03T21:51:06.301Z,21.43
2023-01-03T21:53:51.521Z,17.93
2023-01-03T21:56:22.935Z,19.83
2023-01-03T21:58:52.909Z,21.17
2023-01-03T22:01:26.481Z,20.97
2023-01-03T22:04:18.607Z,21.43
2023-01-03T22:06:51.517Z,19.00
2023-01-03T22:09:42.571Z,21.03
2023-01-03T22:12:15.308Z,21.90
2023-01-03T22:14:48.869Z,24.97
2023-01-03T22:17:17.759Z,20.80
2023-01-03T22:19:47.999Z,21.63
2023-01-03T22:22:20.369Z,22.67
2023-01-03T22:24:50.803Z,21.80
2023-01-03T22:27:22.959Z,22.27
2023-01-03T22:29:51.907Z,25.53
2023-01-03T22:32:24.807Z,27.50
2023-01-03T22:34:57.808Z,22.87
2023-01-03T22:37:29.962Z,19.30
2023-01-03T22:40:05.324Z,21.53
2023-01-03T22:42:37.076Z,21.50
2023-01-03T22:45:08.598Z,21.50
2023-01-03T22:47:42.835Z,19.93
2023-01-03T22:50:17.553Z,21.73
2023-01-03T22:52:50.991Z,24.40
2023-01-03T22:55:33.838Z,21.80
2023-01-03T22:58:03.403Z,19.93
2023-01-03T23:00:32.101Z,21.27
2023-01-03T23:03:02.829Z,24.97
2023-01-03T23:05:31.240Z,24.43
2023-01-03T23:08:00.121Z,20.57
2023-01-03T23:10:30.232Z,23.80
2023-01-03T23:13:01.029Z,22.10
2023-01-03T23:15:31.722Z,21.60
2023-01-03T23:18:02.251Z,18.20
2023-01-03T23:20:34.837Z,23.30
2023-01-03T23:23:08.766Z,22.43
2023-01-03T23:25:42.143Z,19.87
2023-01-03T23:28:10.645Z,20.57
2023-01-03T23:30:42.015Z,21.83
2023-01-03T23:33:14.389Z,18.10
2023-01-03T23:35:48.785Z,21.23
2023-01-03T23:38:19.340Z,20.03
2023-01-03T23:40:51.619Z,21.10
2023-01-03T23:43:20.627Z,17.03
2023-01-03T23:45:50.381Z,19.27
2023-01-03T23:48:20.035Z,16.70
2023-01-03T23:50:51.908Z,19.23
2023-01-03T23:53:20.547Z,18.27
2023-01-03T23:56:01.891Z,18.17
2023-01-03T23:58:32.279Z,18.33
